Time;durP1;ratioP1;P1;durP2;ratioP2;P2;SDS_P1;SDS_P2;PMS_P1;PMS_P2;Temp;Humidity;BMP_temperature;BMP_pressure;BME280_temperature;BME280_humidity;BME280_pressure;Samples;Min_cycle;Max_cycle;Signal;HPM_P1;HPM_P2
2020/12/19 00:00:38;;;;;;;25.45;17.80;;;;;;;5.17;90.45;100903.53;5005996;28;20053;-78
2020/12/19 00:03:04;;;;;;;28.73;18.33;;;;;;;5.16;90.68;100880.81;5000782;28;20050;-76
2020/12/19 00:05:31;;;;;;;27.88;17.27;;;;;;;5.05;90.19;100889.72;5005218;28;20666;-75
2020/12/19 00:07:58;;;;;;;29.15;18.40;;;;;;;4.90;90.42;100878.59;5007919;28;20075;-76
2020/12/19 00:10:24;;;;;;;30.02;17.77;;;;;;;4.86;90.96;100876.06;5018499;28;20060;-78
2020/12/19 00:12:50;;;;;;;28.50;18.25;;;;;;;4.83;91.25;100879.59;5013639;28;20042;-77
2020/12/19 00:15:18;;;;;;;32.38;18.10;;;;;;;4.81;91.71;100881.38;5002228;28;20056;-77
2020/12/19 00:17:44;;;;;;;28.75;18.08;;;;;;;4.84;91.51;100896.22;5008948;28;20488;-77
2020/12/19 00:20:11;;;;;;;29.20;18.05;;;;;;;4.85;91.66;100884.81;5002885;28;20128;-77
2020/12/19 00:22:38;;;;;;;31.90;19.30;;;;;;;4.82;91.42;100867.38;5015999;28;20084;-75
2020/12/19 00:25:04;;;;;;;27.98;17.98;;;;;;;4.79;91.25;100869.16;5013991;28;20038;-75
2020/12/19 00:27:31;;;;;;;27.77;17.95;;;;;;;4.78;91.90;100872.69;5009387;28;20056;-74
2020/12/19 00:29:57;;;;;;;27.95;18.15;;;;;;;4.74;91.94;100861.38;5013396;28;20473;-76
2020/12/19 00:32:24;;;;;;;29.17;17.65;;;;;;;4.69;91.88;100852.72;5014712;28;20152;-76
2020/12/19 00:34:54;;;;;;;30.02;18.73;;;;;;;4.68;91.92;100844.88;5008533;28;20046;-76
2020/12/19 00:37:21;;;;;;;30.23;18.55;;;;;;;4.66;92.43;100855.38;5004695;28;20058;-77
2020/12/19 00:39:48;;;;;;;28.98;18.00;;;;;;;4.63;92.12;100852.81;5009324;28;20515;-77
2020/12/19 00:42:15;;;;;;;28.58;18.02;;;;;;;4.58;92.55;100846.75;5013563;28;20125;-81
2020/12/19 00:44:41;;;;;;;31.42;17.95;;;;;;;4.54;92.80;100852.97;5006877;28;20048;-77
2020/12/19 00:47:08;;;;;;;27.95;18.15;;;;;;;4.53;93.06;100856.47;5012557;28;20061;-76
2020/12/19 00:49:34;;;;;;;31.10;18.40;;;;;;;4.55;92.98;100850.31;4998343;28;20060;-75
2020/12/19 00:52:01;;;;;;;28.23;17.27;;;;;;;4.57;93.16;100851.13;5002573;28;20421;-76
2020/12/19 00:54:27;;;;;;;29.80;18.30;;;;;;;4.62;93.77;100847.56;4980091;28;20054;-76
2020/12/19 00:56:54;;;;;;;28.65;17.88;;;;;;;4.62;93.40;100837.09;5024252;28;20056;-78
2020/12/19 00:59:21;;;;;;;27.38;17.77;;;;;;;4.60;93.08;100837.09;5003130;28;20493;-77
2020/12/19 01:01:47;;;;;;;27.80;17.83;;;;;;;4.57;92.95;100845.88;5014636;28;20058;-75
2020/12/19 01:04:13;;;;;;;25.38;16.88;;;;;;;4.57;93.27;100822.28;5004140;28;20061;-79
2020/12/19 01:06:41;;;;;;;26.33;16.77;;;;;;;4.55;92.49;100833.72;5008328;28;20497;-75
2020/12/19 01:09:08;;;;;;;27.77;17.85;;;;;;;4.50;92.39;100832.91;5015515;28;20046;-78
2020/12/19 01:11:37;;;;;;;24.70;16.92;;;;;;;4.46;93.17;100836.47;5015795;28;20466;-80
2020/12/19 01:14:06;;;;;;;28.27;17.13;;;;;;;4.41;93.22;100844.38;5015041;28;20050;-74
2020/12/19 01:16:33;;;;;;;28.20;17.75;;;;;;;4.39;93.41;100840.94;4999283;28;20060;-77
2020/12/19 01:19:04;;;;;;;25.00;16.30;;;;;;;4.33;93.53;100838.41;5013415;28;20050;-76
2020/12/19 01:21:32;;;;;;;25.65;16.42;;;;;;;4.35;94.00;100841.88;5015803;28;20149;-77
2020/12/19 01:23:59;;;;;;;26.30;16.98;;;;;;;4.31;93.54;100834.94;5017263;28;20145;-74
2020/12/19 01:26:26;;;;;;;28.60;16.73;;;;;;;4.31;93.89;100824.44;5010674;28;20061;-78
2020/12/19 01:28:53;;;;;;;27.17;16.88;;;;;;;4.29;93.42;100823.59;5003561;28;20057;-77
2020/12/19 01:31:22;;;;;;;26.25;17.13;;;;;;;4.23;93.42;100826.31;5012221;28;20049;-76
2020/12/19 01:33:50;;;;;;;27.00;16.77;;;;;;;4.23;93.85;100832.44;5000261;28;20061;-78
2020/12/19 01:36:21;;;;;;;27.00;17.45;;;;;;;4.23;94.56;100836.81;4995467;28;20057;-78
2020/12/19 01:38:48;;;;;;;27.63;18.27;;;;;;;4.18;94.23;100828.13;5010025;28;20128;-78
2020/12/19 01:41:14;;;;;;;29.02;17.58;;;;;;;4.18;94.04;100822.88;5014849;28;20060;-77
2020/12/19 01:43:42;;;;;;;50.42;25.55;;;;;;;4.12;93.71;100815.97;5015237;28;20086;-77
2020/12/19 01:46:09;;;;;;;26.50;17.13;;;;;;;4.12;94.13;100812.47;5000883;28;20061;-75
2020/12/19 01:48:36;;;;;;;26.27;17.55;;;;;;;4.10;94.24;100819.50;4994578;28;20046;-77
2020/12/19 01:51:03;;;;;;;28.02;17.08;;;;;;;4.08;94.33;100816.06;4995674;28;20164;-76
2020/12/19 01:53:30;;;;;;;27.63;17.33;;;;;;;4.08;94.49;100816.06;4996843;28;20367;-76
2020/12/19 01:55:58;;;;;;;27.98;17.67;;;;;;;4.07;94.47;100814.31;5016268;28;20049;-76
2020/12/19 01:58:25;;;;;;;24.30;16.38;;;;;;;4.06;94.77;100802.09;5037414;28;20049;-76
2020/12/19 02:00:52;;;;;;;26.10;17.35;;;;;;;4.05;94.60;100808.22;5020803;28;20102;-76
2020/12/19 02:03:31;;;;;;;26.30;17.30;;;;;;;4.12;94.95;100825.59;5330496;23;20212;-77
2020/12/19 02:05:57;;;;;;;28.38;16.50;;;;;;;4.17;94.83;100823.78;4988741;28;20052;-76
2020/12/19 02:08:24;;;;;;;26.65;17.20;;;;;;;4.20;94.27;100834.22;4994209;28;20042;-78
2020/12/19 02:10:51;;;;;;;27.52;17.20;;;;;;;4.23;94.19;100821.06;4986598;28;20410;-77
2020/12/19 02:13:17;;;;;;;26.77;17.30;;;;;;;4.23;93.79;100808.84;4985838;28;20402;-76
2020/12/19 02:15:45;;;;;;;24.92;15.73;;;;;;;4.16;93.39;100799.31;4992112;28;20569;-75
2020/12/19 02:18:12;;;;;;;25.52;16.45;;;;;;;4.07;92.83;100791.59;4996589;28;20424;-76
2020/12/19 02:20:39;;;;;;;26.85;16.30;;;;;;;4.03;93.70;100804.75;4983633;28;20546;-76
2020/12/19 02:23:07;;;;;;;29.67;18.27;;;;;;;4.01;93.89;100809.16;4992812;28;20043;-80
2020/12/19 02:25:37;;;;;;;26.75;17.05;;;;;;;3.97;94.42;100797.84;4993379;28;20057;-77
2020/12/19 02:28:06;;;;;;;26.02;17.23;;;;;;;4.01;94.51;100803.91;4992452;28;20050;-77
2020/12/19 02:30:37;;;;;;;27.95;16.80;;;;;;;4.01;94.12;100793.41;4991547;28;20060;-77
2020/12/19 02:33:04;;;;;;;28.60;16.58;;;;;;;3.99;93.79;100789.97;4991122;28;20129;-77
2020/12/19 02:35:31;;;;;;;27.50;17.25;;;;;;;3.99;94.40;100787.34;4993555;28;20046;-77
2020/12/19 02:38:01;;;;;;;25.70;17.00;;;;;;;4.00;93.75;100784.69;4991017;28;20066;-78
2020/12/19 02:40:28;;;;;;;28.13;17.30;;;;;;;3.96;93.60;100772.50;4988617;28;20050;-77
2020/12/19 02:42:54;;;;;;;23.20;15.90;;;;;;;3.99;93.98;100782.09;4988389;28;20105;-76
2020/12/19 02:45:20;;;;;;;27.20;17.08;;;;;;;3.94;93.92;100786.53;4995188;28;20106;-77
2020/12/19 02:47:47;;;;;;;27.55;17.13;;;;;;;3.97;94.49;100776.00;4987477;28;20129;-76
2020/12/19 02:50:13;;;;;;;27.27;16.73;;;;;;;3.99;93.83;100764.63;4976698;28;20378;-77
2020/12/19 02:52:39;;;;;;;28.80;17.00;;;;;;;3.93;93.51;100780.44;4988002;28;20050;-77
2020/12/19 02:55:06;;;;;;;25.98;16.88;;;;;;;3.94;94.09;100784.75;4990962;28;20494;-77
2020/12/19 02:57:32;;;;;;;27.80;17.75;;;;;;;3.90;94.21;100774.38;4995219;28;20161;-76
2020/12/19 02:59:58;;;;;;;27.25;17.08;;;;;;;3.92;94.72;100788.31;4990960;28;20055;-80
2020/12/19 03:02:25;;;;;;;26.70;16.77;;;;;;;3.91;94.68;100782.22;4983749;28;20481;-76
2020/12/19 03:04:51;;;;;;;25.85;16.75;;;;;;;3.90;94.19;100775.25;4988458;28;20412;-77
2020/12/19 03:07:18;;;;;;;31.33;18.35;;;;;;;3.93;94.28;100772.59;4985372;28;20054;-78
2020/12/19 03:09:44;;;;;;;28.27;17.50;;;;;;;3.98;94.17;100788.22;4994469;28;20050;-76
2020/12/19 03:12:11;;;;;;;25.65;16.67;;;;;;;4.03;94.25;100791.66;4991366;28;20046;-75
2020/12/19 03:14:38;;;;;;;27.63;17.13;;;;;;;4.03;94.26;100770.69;4987116;28;20050;-75
2020/12/19 03:17:05;;;;;;;27.10;16.85;;;;;;;4.00;94.04;100778.59;4983916;28;20486;-74
2020/12/19 03:19:31;;;;;;;24.92;16.48;;;;;;;4.02;94.22;100774.19;4987912;28;20052;-76
2020/12/19 03:21:57;;;;;;;25.50;16.08;;;;;;;4.07;94.05;100783.72;4982568;28;20082;-75
2020/12/19 03:24:24;;;;;;;27.95;16.92;;;;;;;4.13;94.30;100780.13;4985354;28;20055;-77
2020/12/19 03:26:50;;;;;;;25.98;16.42;;;;;;;4.21;94.37;100776.53;5002604;28;20046;-76
2020/12/19 03:29:17;;;;;;;25.50;16.25;;;;;;;4.20;93.29;100760.81;4992442;28;20061;-76
2020/12/19 03:31:43;;;;;;;25.92;16.42;;;;;;;4.21;93.07;100750.31;4991768;28;20129;-80
2020/12/19 03:34:10;;;;;;;24.90;16.48;;;;;;;4.20;92.83;100763.44;4987425;28;20050;-76
2020/12/19 03:36:41;;;;;;;28.88;16.77;;;;;;;4.21;92.90;100754.69;4992101;28;20065;-76
2020/12/19 03:39:08;;;;;;;26.52;16.38;;;;;;;4.26;93.48;100763.34;4994959;28;20481;-76
2020/12/19 03:41:34;;;;;;;24.60;15.38;;;;;;;4.28;93.54;100750.22;4993723;28;20050;-76
2020/12/19 03:44:00;;;;;;;24.85;15.90;;;;;;;4.30;93.11;100743.19;4998932;28;20050;-82
2020/12/19 03:46:27;;;;;;;26.98;17.15;;;;;;;4.36;93.09;100759.69;4997258;28;20050;-76
2020/12/19 03:48:53;;;;;;;26.92;16.27;;;;;;;4.39;92.93;100759.66;4987325;28;20497;-76
2020/12/19 03:51:20;;;;;;;24.15;16.02;;;;;;;4.42;93.17;100756.97;4982016;28;20487;-78
2020/12/19 03:53:46;;;;;;;23.50;14.70;;;;;;;4.48;93.38;100756.00;5008669;28;20134;-81
2020/12/19 03:56:12;;;;;;;23.30;15.30;;;;;;;4.54;92.57;100755.91;5006632;28;20034;-77
2020/12/19 03:58:39;;;;;;;23.50;15.40;;;;;;;4.61;92.89;100752.28;5003169;28;20058;-76
2020/12/19 04:01:06;;;;;;;24.52;15.48;;;;;;;4.59;91.87;100749.69;4988246;28;20042;-78
2020/12/19 04:03:32;;;;;;;22.63;15.10;;;;;;;4.61;92.32;100748.78;4994632;28;20073;-80
2020/12/19 04:05:59;;;;;;;25.38;16.00;;;;;;;4.62;92.16;100745.28;4978811;28;20130;-77
2020/12/19 04:08:25;;;;;;;22.73;15.85;;;;;;;4.59;91.56;100747.06;4990445;28;20050;-81
2020/12/19 04:10:51;;;;;;;25.63;16.67;;;;;;;4.60;91.59;100742.69;5006247;28;20038;-78
2020/12/19 04:13:18;;;;;;;23.20;14.80;;;;;;;4.65;91.95;100740.84;5006396;28;20046;-82
2020/12/19 04:15:44;;;;;;;25.52;15.60;;;;;;;4.72;91.55;100745.09;5013138;28;20069;-77
2020/12/19 04:18:11;;;;;;;23.20;15.18;;;;;;;4.70;91.38;100743.41;4991338;28;20074;-76
2020/12/19 04:20:37;;;;;;;23.33;15.82;;;;;;;4.72;91.35;100747.72;4992424;28;20051;-78
2020/12/19 04:23:04;;;;;;;23.40;15.60;;;;;;;4.74;91.78;100743.31;4994722;28;20134;-76
2020/12/19 04:25:30;;;;;;;23.90;15.00;;;;;;;4.77;91.77;100740.63;4984655;28;20046;-77
2020/12/19 04:27:57;;;;;;;23.50;14.75;;;;;;;4.80;91.52;100737.09;4977600;28;20056;-77
2020/12/19 04:30:23;;;;;;;23.35;15.38;;;;;;;4.77;91.21;100730.13;4990243;28;20054;-75
2020/12/19 04:32:50;;;;;;;24.67;15.00;;;;;;;4.77;90.89;100735.38;4992066;28;20058;-77
2020/12/19 04:35:16;;;;;;;22.42;15.05;;;;;;;4.77;91.20;100737.16;4994977;28;20049;-76
2020/12/19 04:37:43;;;;;;;23.10;14.43;;;;;;;4.79;91.64;100741.47;4982074;28;20080;-76
2020/12/19 04:40:10;;;;;;;24.95;15.35;;;;;;;4.84;91.36;100736.16;4993371;28;20050;-76
2020/12/19 04:42:37;;;;;;;25.38;15.02;;;;;;;4.85;91.82;100732.66;4986479;28;20578;-79
2020/12/19 04:45:05;;;;;;;21.85;14.65;;;;;;;4.87;91.18;100736.09;4986815;28;20042;-77
2020/12/19 04:47:31;;;;;;;23.80;15.18;;;;;;;4.88;91.48;100728.19;4982699;28;20051;-76
2020/12/19 04:49:59;;;;;;;25.05;16.30;;;;;;;4.92;90.83;100734.25;4979609;28;20426;-78
2020/12/19 04:52:27;;;;;;;23.15;15.77;;;;;;;4.92;90.96;100726.38;4974036;28;20487;-77
2020/12/19 04:54:54;;;;;;;24.20;16.08;;;;;;;4.92;90.45;100729.00;4984145;28;20042;-76
2020/12/19 04:57:21;;;;;;;22.75;15.32;;;;;;;4.96;91.13;100721.94;4992681;28;20417;-77
2020/12/19 04:59:48;;;;;;;23.20;15.50;;;;;;;4.98;90.61;100723.66;4985475;28;20046;-76
2020/12/19 05:02:16;;;;;;;21.67;15.25;;;;;;;4.99;90.66;100725.38;4976164;28;20078;-76
2020/12/19 05:04:43;;;;;;;28.65;16.17;;;;;;;5.02;90.44;100724.47;4981944;28;20057;-78
2020/12/19 05:07:14;;;;;;;26.27;16.60;;;;;;;5.04;90.81;100726.13;4978310;28;20049;-77
2020/12/19 05:09:43;;;;;;;25.20;16.38;;;;;;;5.12;90.32;100728.63;4984543;28;20137;-80
2020/12/19 05:12:11;;;;;;;24.30;15.45;;;;;;;5.11;90.30;100730.38;4989021;28;20051;-77
2020/12/19 05:14:38;;;;;;;23.98;15.30;;;;;;;5.15;90.12;100737.31;4990442;28;20054;-77
2020/12/19 05:17:04;;;;;;;24.30;15.77;;;;;;;5.18;90.25;100732.00;4990308;28;20134;-76
2020/12/19 05:19:32;;;;;;;24.83;15.48;;;;;;;5.16;89.73;100720.66;4976369;28;20050;-77
2020/12/19 05:21:58;;;;;;;22.42;14.82;;;;;;;5.19;89.53;100728.50;4989818;28;20057;-78
2020/12/19 05:24:36;;;;;;;21.63;14.60;;;;;;;5.16;89.85;100725.91;4991196;28;20050;-76
2020/12/19 05:27:04;;;;;;;23.52;15.48;;;;;;;5.15;89.69;100716.31;4990103;28;20042;-74
2020/12/19 05:29:35;;;;;;;25.15;16.25;;;;;;;5.11;89.51;100729.53;4992979;28;20618;-76
2020/12/19 05:32:03;;;;;;;23.63;15.43;;;;;;;5.07;89.61;100720.81;4985593;28;20781;-76
2020/12/19 05:34:29;;;;;;;23.13;15.88;;;;;;;5.04;89.83;100722.63;4990950;28;20054;-81
2020/12/19 05:36:56;;;;;;;24.48;15.95;;;;;;;5.02;90.30;100725.31;4986972;28;20050;-77
2020/12/19 05:39:23;;;;;;;25.48;16.52;;;;;;;5.00;89.71;100711.34;4987748;28;20417;-76
2020/12/19 05:41:50;;;;;;;24.40;16.25;;;;;;;4.97;89.86;100723.66;4991186;28;20046;-77
2020/12/19 05:44:21;;;;;;;23.52;16.05;;;;;;;4.91;89.76;100722.00;4986953;28;20042;-75
2020/12/19 05:46:48;;;;;;;25.13;16.55;;;;;;;4.87;89.74;100725.63;4995135;28;20050;-80
2020/12/19 05:49:16;;;;;;;23.98;15.75;;;;;;;4.87;90.12;100736.09;4987636;28;20049;-77
2020/12/19 05:51:43;;;;;;;24.10;15.63;;;;;;;4.80;90.27;100724.84;4992807;28;20064;-77
2020/12/19 05:54:12;;;;;;;24.05;16.33;;;;;;;4.81;90.35;100729.19;4987849;28;20121;-77
2020/12/19 05:56:44;;;;;;;26.98;17.42;;;;;;;4.80;90.22;100729.22;4991271;28;20050;-76
2020/12/19 05:59:13;;;;;;;26.42;17.00;;;;;;;4.81;90.58;100736.22;4994088;28;20081;-80
2020/12/19 06:01:44;;;;;;;23.60;15.60;;;;;;;4.77;90.76;100731.91;4994441;28;20180;-77
2020/12/19 06:04:13;;;;;;;25.83;16.83;;;;;;;4.79;90.40;100730.97;4992043;28;20125;-76
2020/12/19 06:06:41;;;;;;;25.60;17.02;;;;;;;4.80;90.98;100729.22;4987598;28;20058;-77
2020/12/19 06:09:10;;;;;;;25.42;16.67;;;;;;;4.81;91.05;100736.22;4981744;28;20047;-76
2020/12/19 06:11:52;;;;;;;25.33;16.85;;;;;;;4.81;91.10;100729.19;4988025;28;20055;-79
2020/12/19 06:14:25;;;;;;;23.05;15.27;;;;;;;4.80;91.01;100722.22;4982222;28;20060;-76
2020/12/19 06:16:59;;;;;;;25.10;15.93;;;;;;;4.75;91.10;100717.94;4992401;28;20050;-76
2020/12/19 06:19:30;;;;;;;25.52;15.85;;;;;;;4.78;91.41;100723.13;4995589;28;20226;-76
2020/12/19 06:21:56;;;;;;;24.17;16.15;;;;;;;4.77;91.03;100714.41;4982647;28;20540;-75
2020/12/19 06:24:46;;;;;;;27.60;17.00;;;;;;;4.75;91.09;100712.69;4980878;28;20082;-78
2020/12/19 06:27:23;;;;;;;27.83;17.83;;;;;;;4.79;91.66;100714.38;4988716;28;20047;-77
2020/12/19 06:29:51;;;;;;;26.65;16.90;;;;;;;4.83;91.69;100718.69;4990413;28;20046;-76
2020/12/19 06:32:23;;;;;;;24.42;17.00;;;;;;;4.89;91.09;100713.31;4993802;28;20049;-79
2020/12/19 06:35:09;;;;;;;27.42;17.42;;;;;;;4.91;90.57;100711.50;4994379;28;20081;-75
2020/12/19 06:37:43;;;;;;;25.02;16.83;;;;;;;4.92;90.35;100710.63;4983846;28;20077;-75
2020/12/19 06:40:12;;;;;;;27.70;17.52;;;;;;;4.90;90.69;100720.28;4994269;28;20047;-76
2020/12/19 06:42:40;;;;;;;26.10;16.98;;;;;;;4.86;90.52;100723.88;4992214;28;20058;-76
2020/12/19 06:45:23;;;;;;;27.20;17.95;;;;;;;4.77;90.85;100722.28;4990920;28;20053;-77
2020/12/19 06:47:50;;;;;;;26.40;16.27;;;;;;;4.72;90.84;100724.09;4991127;28;20479;-77
2020/12/19 06:50:18;;;;;;;26.52;16.83;;;;;;;4.67;90.97;100718.09;4988344;28;20402;-77
2020/12/19 06:53:00;;;;;;;25.75;16.88;;;;;;;4.62;91.02;100726.91;4993382;28;20047;-77
2020/12/19 06:55:29;;;;;;;28.15;17.35;;;;;;;4.60;91.42;100726.94;4990323;28;20406;-76
2020/12/19 06:57:57;;;;;;;27.08;17.13;;;;;;;4.57;91.73;100730.47;4990224;28;20047;-77
2020/12/19 07:00:31;;;;;;;26.00;16.77;;;;;;;4.54;91.80;100727.94;4983201;28;20493;-76
2020/12/19 07:03:00;;;;;;;26.45;16.27;;;;;;;4.50;92.01;100726.25;4993665;28;20401;-77
2020/12/19 07:05:28;;;;;;;27.33;17.52;;;;;;;4.46;91.82;100728.94;4982765;28;20355;-79
2020/12/19 07:08:21;;;;;;;24.80;17.35;;;;;;;4.43;91.80;100742.09;4984144;28;20625;-78
2020/12/19 07:10:49;;;;;;;29.88;17.77;;;;;;;4.38;91.97;100739.56;5001797;28;20054;-80
2020/12/19 07:13:16;;;;;;;26.08;16.77;;;;;;;4.33;92.09;100737.91;5002684;28;20144;-76
2020/12/19 07:15:52;;;;;;;26.60;17.38;;;;;;;4.27;92.66;100738.00;4992756;28;20050;-77
2020/12/19 07:18:33;;;;;;;27.60;17.27;;;;;;;4.28;92.75;100753.69;4991175;28;20069;-79
2020/12/19 07:21:00;;;;;;;27.98;17.58;;;;;;;4.22;92.71;100752.06;4992582;28;20512;-75
2020/12/19 07:23:31;;;;;;;26.00;17.50;;;;;;;4.22;92.98;100744.19;4978109;28;20416;-78
2020/12/19 07:25:59;;;;;;;26.23;17.15;;;;;;;4.17;92.36;100748.63;4988974;28;20084;-79
2020/12/19 07:28:25;;;;;;;27.60;17.88;;;;;;;4.15;92.01;100752.16;4987255;28;20050;-77
2020/12/19 07:30:52;;;;;;;29.02;17.45;;;;;;;4.11;92.84;100753.94;4989948;28;20191;-78
2020/12/19 07:33:19;;;;;;;28.23;17.45;;;;;;;4.13;93.33;100754.78;4970011;28;20157;-75
2020/12/19 07:35:46;;;;;;;26.38;17.40;;;;;;;4.11;92.95;100748.72;4981842;28;20490;-80
2020/12/19 07:38:14;;;;;;;28.05;17.63;;;;;;;4.09;92.70;100755.72;4981062;28;20480;-78
2020/12/19 07:40:41;;;;;;;28.38;18.13;;;;;;;4.05;92.76;100748.81;4973183;28;20065;-76
2020/12/19 07:43:09;;;;;;;28.35;18.05;;;;;;;4.07;93.03;100754.91;4986514;28;20486;-78
2020/12/19 07:45:38;;;;;;;29.85;17.95;;;;;;;4.04;93.43;100757.56;4982617;28;20457;-74
2020/12/19 07:48:06;;;;;;;43.03;24.77;;;;;;;4.05;93.47;100753.19;4990599;28;20053;-75
2020/12/19 07:50:34;;;;;;;26.83;17.30;;;;;;;4.07;93.33;100757.53;4990946;28;20046;-77
2020/12/19 07:53:06;;;;;;;26.63;17.58;;;;;;;4.05;93.21;100753.19;4995234;28;20137;-76
2020/12/19 07:55:35;;;;;;;27.27;17.77;;;;;;;4.07;93.02;100746.19;4991284;28;20058;-78
2020/12/19 07:58:02;;;;;;;27.08;17.50;;;;;;;4.16;93.26;100761.75;4990759;28;20508;-83
2020/12/19 08:00:30;;;;;;;27.75;18.40;;;;;;;4.26;93.24;100760.72;4992087;28;20476;-76
2020/12/19 08:02:57;;;;;;;26.45;17.85;;;;;;;4.28;92.64;100766.81;4982532;28;20482;-79
2020/12/19 08:05:24;;;;;;;26.67;17.63;;;;;;;4.26;92.40;100760.72;4984752;28;20062;-76
2020/12/19 08:07:52;;;;;;;28.27;18.08;;;;;;;4.29;92.85;100771.16;4989574;28;20137;-77
2020/12/19 08:10:19;;;;;;;26.15;16.55;;;;;;;4.31;92.56;100773.75;4991597;28;20060;-76
2020/12/19 08:12:46;;;;;;;27.38;17.65;;;;;;;4.28;92.33;100773.81;4989410;28;20056;-76
2020/12/19 08:15:18;;;;;;;28.65;18.70;;;;;;;4.28;92.62;100763.31;4984986;28;20050;-79
2020/12/19 08:17:51;;;;;;;26.60;17.70;;;;;;;4.28;92.25;100774.66;4987445;28;20040;-76
2020/12/19 08:20:28;;;;;;;27.13;18.23;;;;;;;4.32;92.01;100768.50;4986053;28;20066;-76
2020/12/19 08:23:06;;;;;;;29.77;18.80;;;;;;;4.55;94.36;100760.28;4989206;28;20050;-77
2020/12/19 08:25:34;;;;;;;28.33;18.38;;;;;;;4.77;94.98;100760.75;4988977;28;20055;-76
2020/12/19 08:28:01;;;;;;;30.27;19.52;;;;;;;4.89;94.87;100757.91;4986372;28;20050;-80
2020/12/19 08:30:28;;;;;;;27.00;18.10;;;;;;;5.00;94.74;100755.97;4988843;28;20046;-76
2020/12/19 08:33:07;;;;;;;25.30;17.30;;;;;;;5.03;91.75;100761.19;4992016;28;20074;-78
2020/12/19 08:35:39;;;;;;;24.40;16.42;;;;;;;5.00;90.44;100755.09;4983936;28;20073;-77
2020/12/19 08:38:11;;;;;;;26.88;17.00;;;;;;;5.11;89.59;100750.50;4989739;28;20056;-76
2020/12/19 08:40:43;;;;;;;24.17;16.55;;;;;;;5.17;89.63;100761.78;4986352;28;20050;-77
2020/12/19 08:43:12;;;;;;;26.42;16.90;;;;;;;5.23;88.56;100759.03;4987160;28;20051;-77
2020/12/19 08:45:43;;;;;;;24.40;16.85;;;;;;;5.34;89.00;100758.81;4988922;28;20057;-76
2020/12/19 08:48:24;;;;;;;26.98;16.33;;;;;;;5.52;88.24;100766.31;4984688;28;20057;-77
2020/12/19 08:50:54;;;;;;;23.40;16.48;;;;;;;5.62;87.03;100765.25;4994872;28;20530;-77
2020/12/19 08:53:27;;;;;;;27.15;16.45;;;;;;;5.64;86.70;100757.34;4986766;28;20173;-76
2020/12/19 08:55:54;;;;;;;21.77;16.15;;;;;;;5.64;86.67;100762.59;4993156;28;20665;-75
2020/12/19 08:58:23;;;;;;;23.10;16.60;;;;;;;5.60;86.40;100769.66;4992459;28;20050;-76
2020/12/19 09:00:52;;;;;;;20.95;14.73;;;;;;;5.51;86.09;100772.47;4995678;28;20046;-83
2020/12/19 09:03:28;;;;;;;23.63;15.95;;;;;;;5.51;86.34;100782.13;5010436;28;20142;-79
2020/12/19 09:06:14;;;;;;;21.50;15.13;;;;;;;5.51;85.96;100776.88;5003470;28;20106;-76
2020/12/19 09:08:45;;;;;;;21.50;15.50;;;;;;;5.49;85.17;100787.41;4976557;28;20103;-76
2020/12/19 09:11:24;;;;;;;21.40;15.90;;;;;;;5.48;85.29;100782.19;4988840;28;20050;-77
2020/12/19 09:14:08;;;;;;;22.92;15.52;;;;;;;5.51;85.16;100788.22;4986716;28;20054;-77
2020/12/19 09:16:44;;;;;;;23.05;15.65;;;;;;;5.49;85.13;100784.78;4989411;28;20091;-78
2020/12/19 09:19:15;;;;;;;22.05;15.70;;;;;;;5.50;85.28;100789.16;5010373;28;20046;-76
2020/12/19 09:21:58;;;;;;;24.02;16.05;;;;;;;5.54;85.25;100793.41;5012080;28;20046;-76
2020/12/19 09:24:25;;;;;;;21.20;15.20;;;;;;;5.60;84.81;100801.19;5008248;28;20050;-78
2020/12/19 09:26:51;;;;;;;22.70;15.27;;;;;;;5.66;84.25;100788.84;5007602;28;20046;-77
2020/12/19 09:29:18;;;;;;;19.80;14.13;;;;;;;5.63;83.62;100787.13;4992825;28;20055;-78
2020/12/19 09:31:46;;;;;;;19.73;14.45;;;;;;;5.59;83.36;100790.72;4988203;28;20070;-76
2020/12/19 09:34:14;;;;;;;19.45;14.38;;;;;;;5.57;83.77;100790.75;4992841;28;20061;-76
2020/12/19 09:36:41;;;;;;;22.30;16.00;;;;;;;5.62;84.03;100783.63;5001914;28;20497;-76
2020/12/19 09:39:09;;;;;;;20.15;15.13;;;;;;;5.68;83.41;100781.75;4991876;28;20051;-76
2020/12/19 09:41:35;;;;;;;19.55;14.90;;;;;;;5.75;83.25;100784.25;4993748;28;20081;-75
2020/12/19 09:44:02;;;;;;;20.60;14.73;;;;;;;5.82;81.92;100782.38;4992385;28;20382;-75
2020/12/19 09:46:28;;;;;;;18.27;14.07;;;;;;;5.84;82.21;100793.69;4994021;28;20045;-77
2020/12/19 09:48:55;;;;;;;19.88;15.07;;;;;;;5.89;81.64;100782.22;4999910;28;20497;-77
2020/12/19 09:51:21;;;;;;;18.85;13.77;;;;;;;5.91;81.21;100785.69;4991227;28;20402;-77
2020/12/19 09:53:48;;;;;;;18.80;14.18;;;;;;;5.96;81.64;100783.81;4997601;28;20054;-76
2020/12/19 09:56:15;;;;;;;18.95;13.35;;;;;;;6.06;81.92;100791.50;4994095;28;20109;-76
2020/12/19 09:58:41;;;;;;;17.75;13.27;;;;;;;6.11;80.63;100774.72;4998220;28;20046;-76
2020/12/19 10:01:07;;;;;;;20.45;13.75;;;;;;;6.14;80.47;100774.63;4992674;28;20046;-77
2020/12/19 10:03:34;;;;;;;18.52;13.60;;;;;;;6.23;81.19;100778.84;4991721;28;20048;-78
2020/12/19 10:06:00;;;;;;;18.25;12.70;;;;;;;6.27;80.21;100776.09;4986279;28;20111;-78
2020/12/19 10:08:26;;;;;;;19.15;13.43;;;;;;;6.21;79.32;100760.47;4983942;28;20050;-76
2020/12/19 10:10:53;;;;;;;18.15;13.23;;;;;;;6.22;80.01;100766.59;4986324;28;20142;-77
2020/12/19 10:13:19;;;;;;;18.65;13.90;;;;;;;6.26;79.57;100774.38;4993969;28;20081;-75
2020/12/19 10:15:45;;;;;;;16.95;12.77;;;;;;;6.29;79.58;100762.94;4986516;28;20059;-77
2020/12/19 10:18:13;;;;;;;18.95;13.50;;;;;;;6.34;80.41;100782.06;4989757;28;20046;-76
2020/12/19 10:20:39;;;;;;;14.98;11.50;;;;;;;6.42;79.82;100774.88;4992272;28;20050;-76
2020/12/19 10:23:06;;;;;;;15.88;12.27;;;;;;;6.50;78.79;100772.91;4993643;28;20105;-79
2020/12/19 10:25:32;;;;;;;16.38;12.02;;;;;;;6.65;78.16;100772.53;4988945;28;20052;-75
2020/12/19 10:27:59;;;;;;;19.23;13.27;;;;;;;6.78;77.75;100759.94;4990754;28;20054;-76
2020/12/19 10:30:25;;;;;;;18.27;12.30;;;;;;;6.98;77.12;100765.53;4987338;28;20129;-76
2020/12/19 10:32:51;;;;;;;16.77;12.07;;;;;;;7.13;76.38;100766.03;4985066;28;20395;-75
2020/12/19 10:35:18;;;;;;;17.55;11.85;;;;;;;7.17;76.04;100747.50;4985265;28;20764;-77
2020/12/19 10:37:46;;;;;;;16.02;11.88;;;;;;;7.07;75.89;100761.81;4989216;28;20109;-78
2020/12/19 10:40:13;;;;;;;16.65;12.10;;;;;;;6.98;76.58;100764.69;4992207;28;20081;-80
2020/12/19 10:42:39;;;;;;;21.50;12.85;;;;;;;6.99;81.47;100761.16;4989333;28;20085;-78
2020/12/19 10:45:06;;;;;;;15.93;11.40;;;;;;;7.04;77.52;100761.91;4981631;28;20069;-77
2020/12/19 10:47:32;;;;;;;16.20;12.48;;;;;;;7.01;76.91;100757.56;4989639;28;20081;-75
2020/12/19 10:49:59;;;;;;;14.32;11.25;;;;;;;6.93;77.34;100761.28;4992206;28;20062;-75
2020/12/19 10:52:25;;;;;;;15.43;11.40;;;;;;;6.92;77.43;100747.28;4990281;28;20541;-78
2020/12/19 10:54:52;;;;;;;15.60;11.95;;;;;;;6.99;77.57;100747.97;4986724;28;20061;-74
2020/12/19 10:57:18;;;;;;;17.20;11.43;;;;;;;7.08;77.08;100745.13;4997619;28;20105;-76
2020/12/19 10:59:44;;;;;;;17.20;12.18;;;;;;;7.08;77.10;100742.50;5004009;28;20081;-80
2020/12/19 11:02:12;;;;;;;15.43;11.68;;;;;;;7.02;77.23;100729.47;5003008;28;20050;-79
2020/12/19 11:04:38;;;;;;;15.55;11.75;;;;;;;7.01;77.41;100733.00;4997489;28;20116;-75
2020/12/19 11:07:05;;;;;;;15.98;12.07;;;;;;;6.98;77.92;100730.44;4987067;28;20126;-76
2020/12/19 11:09:31;;;;;;;16.63;11.80;;;;;;;6.94;78.00;100718.25;4994071;28;20544;-79
2020/12/19 11:11:57;;;;;;;15.63;11.77;;;;;;;6.91;78.36;100718.38;4986736;28;20068;-76
2020/12/19 11:14:27;;;;;;;15.15;11.63;;;;;;;6.91;78.42;100719.25;4990356;28;20064;-78
2020/12/19 11:16:57;;;;;;;16.73;12.27;;;;;;;6.95;78.49;100712.09;4992645;28;20152;-77
2020/12/19 11:19:36;;;;;;;16.48;12.07;;;;;;;7.09;77.77;100717.84;4987813;28;20087;-79
2020/12/19 11:22:02;;;;;;;17.38;12.20;;;;;;;7.08;77.66;100707.38;4982497;28;20097;-77